Time;durP1;ratioP1;P1;durP2;ratioP2;P2;SDS_P1;SDS_P2;PMS_P1;PMS_P2;Temp;Humidity;BMP_temperature;BMP_pressure;BME280_temperature;BME280_humidity;BME280_pressure;Samples;Min_cycle;Max_cycle;Signal;HPM_P1;HPM_P2
2022/08/01 00:00:20;;;;;;;5.13;4.40;;;27.40;47.50;;;;;;5079375;28;20487;-84
2022/08/01 00:02:47;;;;;;;4.57;4.17;;;27.40;47.00;;;;;;5081700;28;20952;-86
2022/08/01 00:05:14;;;;;;;5.53;5.00;;;27.50;47.10;;;;;;5082500;28;20514;-86
2022/08/01 00:07:41;;;;;;;6.20;5.73;;;27.50;47.30;;;;;;5061223;28;20437;-86
2022/08/01 00:10:12;;;;;;;4.90;4.60;;;27.60;47.40;;;;;;5075394;28;20559;-87
2022/08/01 00:12:39;;;;;;;5.70;5.20;;;27.50;47.40;;;;;;5057273;28;20454;-85
2022/08/01 00:15:08;;;;;;;4.73;4.20;;;27.40;47.00;;;;;;5078123;28;20503;-85
2022/08/01 00:17:36;;;;;;;4.80;4.20;;;26.90;47.10;;;;;;5060217;28;20475;-92
2022/08/01 00:20:05;;;;;;;9.67;4.43;;;26.70;47.60;;;;;;5082627;28;20526;-85
2022/08/01 00:22:32;;;;;;;5.10;4.60;;;26.40;48.00;;;;;;5080304;28;20486;-85
2022/08/01 00:24:59;;;;;;;15.90;4.27;;;26.50;48.00;;;;;;5075243;28;20970;-85
2022/08/01 00:27:27;;;;;;;6.10;5.30;;;26.70;47.50;;;;;;5080065;28;20455;-85
2022/08/01 00:29:54;;;;;;;6.00;5.60;;;26.80;48.10;;;;;;5061412;28;20463;-86
2022/08/01 00:32:21;;;;;;;9.83;4.50;;;26.90;47.90;;;;;;5060347;28;20448;-86
2022/08/01 00:34:48;;;;;;;4.93;4.53;;;26.90;47.40;;;;;;5077997;28;20479;-86
2022/08/01 00:37:15;;;;;;;4.73;4.33;;;26.90;47.20;;;;;;5078056;28;20471;-87
2022/08/01 00:39:43;;;;;;;4.83;4.43;;;26.90;47.20;;;;;;5056489;28;20975;-87
2022/08/01 00:42:12;;;;;;;5.27;4.87;;;26.90;47.50;;;;;;5057745;28;20440;-87
2022/08/01 00:44:41;;;;;;;4.40;4.10;;;26.90;47.00;;;;;;5062598;28;20475;-85
2022/08/01 00:47:08;;;;;;;4.73;4.33;;;26.50;47.80;;;;;;5056491;28;20453;-89
2022/08/01 00:49:36;;;;;;;5.40;4.90;;;26.50;48.80;;;;;;5063935;28;20467;-88
2022/08/01 00:52:06;;;;;;;5.50;5.10;;;26.60;48.40;;;;;;5080346;28;20455;-89
2022/08/01 00:54:33;;;;;;;5.50;5.10;;;26.70;48.90;;;;;;5067149;28;20464;-90
2022/08/01 00:57:00;;;;;;;5.67;5.17;;;26.70;48.90;;;;;;5053754;28;20454;-85
2022/08/01 00:59:28;;;;;;;5.20;4.90;;;26.70;48.80;;;;;;5057490;28;20502;-85
2022/08/01 01:01:56;;;;;;;5.50;5.10;;;26.70;48.90;;;;;;5057710;28;20451;-85
2022/08/01 01:04:23;;;;;;;5.57;5.07;;;26.60;49.70;;;;;;5061743;28;20487;-89
2022/08/01 01:07:10;;;;;;;5.90;5.33;;;26.50;49.90;;;;;;5060983;28;20460;-88
2022/08/01 01:09:45;;;;;;;5.00;4.50;;;26.40;50.00;;;;;;5052335;28;20456;-87
2022/08/01 01:12:20;;;;;;;5.67;5.27;;;26.20;50.20;;;;;;5030123;28;21031;-86
2022/08/01 01:14:55;;;;;;;6.47;5.80;;;26.10;50.60;;;;;;5075568;28;20979;-86
2022/08/01 01:17:30;;;;;;;6.60;6.00;;;26.10;50.90;;;;;;5060403;28;21282;-85
2022/08/01 01:20:00;;;;;;;5.60;5.13;;;26.00;52.00;;;;;;5060780;28;20597;-86
2022/08/01 01:22:46;;;;;;;6.10;5.70;;;26.00;51.00;;;;;;5079942;28;20964;-85
2022/08/01 01:25:42;;;;;;;5.70;5.20;;;25.60;52.40;;;;;;5079150;28;20781;-87
2022/08/01 01:28:17;;;;;;;5.40;5.00;;;25.10;52.10;;;;;;5053668;28;21168;-85
2022/08/01 01:30:49;;;;;;;5.23;4.73;;;25.30;51.70;;;;;;5058760;28;20478;-85
2022/08/01 01:33:18;;;;;;;6.53;4.50;;;24.90;52.80;;;;;;5059948;28;20456;-85
2022/08/01 01:35:49;;;;;;;5.10;4.70;;;24.90;52.60;;;;;;5060601;28;21223;-85
2022/08/01 01:38:21;;;;;;;5.40;5.00;;;24.60;53.10;;;;;;5057441;28;20952;-88
2022/08/01 01:40:51;;;;;;;4.73;4.17;;;24.70;53.20;;;;;;5081986;28;20797;-88
2022/08/01 01:43:19;;;;;;;4.23;3.83;;;24.90;51.90;;;;;;5082733;28;20448;-86
2022/08/01 01:45:49;;;;;;;7.73;4.80;;;25.00;52.30;;;;;;5078645;28;20799;-87
2022/08/01 01:48:19;;;;;;;3.87;3.57;;;24.90;52.10;;;;;;5057583;28;20440;-90
2022/08/01 01:50:47;;;;;;;5.23;4.50;;;25.00;51.90;;;;;;5079048;28;20537;-88
2022/08/01 01:53:18;;;;;;;5.50;4.33;;;24.90;52.70;;;;;;5077230;28;20453;-87
2022/08/01 01:55:49;;;;;;;5.77;5.27;;;25.10;52.60;;;;;;5032065;28;21002;-88
2022/08/01 01:58:19;;;;;;;4.70;4.27;;;25.30;51.70;;;;;;5055588;28;20488;-89
2022/08/01 02:00:49;;;;;;;5.63;4.93;;;25.30;51.80;;;;;;5063328;28;20453;-85
2022/08/01 02:03:17;;;;;;;5.13;4.63;;;25.30;51.70;;;;;;5059423;28;20446;-85
2022/08/01 02:05:45;;;;;;;5.37;4.83;;;25.50;51.30;;;;;;5060255;28;20480;-86
2022/08/01 02:08:15;;;;;;;4.97;4.67;;;25.70;51.10;;;;;;5056245;28;20827;-85
2022/08/01 02:11:17;;;;;;;5.23;4.70;;;25.60;50.90;;;;;;5077835;28;20541;-85
2022/08/01 02:13:32;;;;;;;5.00;4.43;;;25.70;50.60;;;;;;5080603;28;20912;-87
2022/08/01 02:16:02;;;;;;;4.67;4.37;;;25.60;50.60;;;;;;5078210;28;20846;-85
2022/08/01 02:18:29;;;;;;;3.97;3.67;;;25.50;50.70;;;;;;5062932;28;20459;-85
2022/08/01 02:20:58;;;;;;;4.47;4.17;;;25.40;50.90;;;;;;5060188;28;20551;-91
2022/08/01 02:23:29;;;;;;;4.90;4.50;;;25.20;52.10;;;;;;5077897;28;20463;-84
2022/08/01 02:25:58;;;;;;;4.63;4.33;;;25.20;52.00;;;;;;5066747;28;20471;-85
2022/08/01 02:28:30;;;;;;;5.07;4.57;;;25.10;52.60;;;;;;5061887;28;20985;-86
2022/08/01 02:31:05;;;;;;;5.50;5.00;;;25.00;52.70;;;;;;5073814;28;21035;-87
2022/08/01 02:33:37;;;;;;;6.90;5.47;;;25.10;53.30;;;;;;5081707;28;20443;-85
2022/08/01 02:36:06;;;;;;;4.63;4.27;;;25.20;53.40;;;;;;5076275;28;20474;-85
2022/08/01 02:38:36;;;;;;;5.43;5.03;;;25.30;52.40;;;;;;5075392;28;20461;-86
2022/08/01 02:41:08;;;;;;;6.80;6.30;;;25.10;54.00;;;;;;5077044;28;20444;-87
2022/08/01 02:43:38;;;;;;;11.10;6.00;;;24.90;54.50;;;;;;5078765;28;20532;-87
2022/08/01 02:46:12;;;;;;;6.50;5.83;;;25.00;53.80;;;;;;5077031;28;20998;-86
2022/08/01 02:48:43;;;;;;;5.20;4.70;;;25.00;53.60;;;;;;5064438;28;20438;-85
2022/08/01 02:51:11;;;;;;;5.73;5.23;;;25.20;53.40;;;;;;5075784;28;20488;-86
2022/08/01 02:53:41;;;;;;;5.77;5.37;;;25.30;52.80;;;;;;5032469;28;20425;-84
2022/08/01 02:56:09;;;;;;;5.20;4.80;;;25.30;52.80;;;;;;5047548;28;20461;-87
2022/08/01 02:58:37;;;;;;;5.73;5.23;;;25.40;52.50;;;;;;5017108;28;20440;-86
2022/08/01 03:01:07;;;;;;;5.53;5.13;;;25.40;52.60;;;;;;5053698;28;20958;-85
2022/08/01 03:03:35;;;;;;;6.07;5.47;;;25.40;52.70;;;;;;5056670;28;20455;-85
2022/08/01 03:06:03;;;;;;;6.23;5.60;;;25.20;53.30;;;;;;5074881;28;21142;-87
2022/08/01 03:08:31;;;;;;;7.83;5.83;;;24.90;53.90;;;;;;5048036;28;20452;-85
2022/08/01 03:11:01;;;;;;;6.10;5.60;;;24.70;54.40;;;;;;5077048;28;20752;-85
2022/08/01 03:13:30;;;;;;;5.50;5.00;;;24.90;53.60;;;;;;5042440;28;20452;-88
2022/08/01 03:15:59;;;;;;;5.37;4.87;;;25.00;52.90;;;;;;5059476;28;20499;-88
2022/08/01 03:18:29;;;;;;;5.10;4.60;;;24.90;53.60;;;;;;5031279;28;20552;-89
2022/08/01 03:20:57;;;;;;;5.67;5.17;;;24.80;53.50;;;;;;5080800;28;20944;-89
2022/08/01 03:23:25;;;;;;;5.50;4.97;;;25.00;53.40;;;;;;5063466;28;21009;-87
2022/08/01 03:25:53;;;;;;;5.53;5.03;;;25.10;53.30;;;;;;5072306;28;20472;-85
2022/08/01 03:28:23;;;;;;;4.40;4.10;;;25.10;53.30;;;;;;5055451;28;20542;-85
2022/08/01 03:30:51;;;;;;;5.87;4.27;;;25.10;52.90;;;;;;5041777;28;20471;-88
2022/08/01 03:33:18;;;;;;;5.60;4.90;;;25.20;52.90;;;;;;5056022;28;20444;-88
2022/08/01 03:35:50;;;;;;;5.47;4.70;;;25.20;52.50;;;;;;5077341;28;20477;-85
2022/08/01 03:38:21;;;;;;;5.07;4.53;;;25.10;53.00;;;;;;5069673;28;20455;-85
2022/08/01 03:40:54;;;;;;;5.90;5.27;;;25.10;52.70;;;;;;5074541;28;20445;-85
2022/08/01 03:43:27;;;;;;;5.10;4.70;;;25.10;52.80;;;;;;5059487;28;20524;-85
2022/08/01 03:45:59;;;;;;;5.37;4.87;;;25.10;53.10;;;;;;5050282;28;20484;-84
2022/08/01 03:48:30;;;;;;;5.10;4.60;;;25.00;52.70;;;;;;5056295;28;20941;-86
2022/08/01 03:51:00;;;;;;;5.70;4.77;;;25.00;52.70;;;;;;5075714;28;20504;-86
2022/08/01 03:53:31;;;;;;;5.87;4.67;;;25.00;53.00;;;;;;5058711;28;20445;-85
2022/08/01 03:56:00;;;;;;;5.40;4.90;;;25.00;53.10;;;;;;5057901;28;21105;-84
2022/08/01 03:58:35;;;;;;;5.60;5.13;;;25.00;52.80;;;;;;5074032;28;20568;-86
2022/08/01 04:01:03;;;;;;;5.73;5.23;;;25.00;53.00;;;;;;5036746;28;20955;-88
2022/08/01 04:03:30;;;;;;;10.63;5.47;;;25.00;52.90;;;;;;5060983;28;20521;-84
2022/08/01 04:05:59;;;;;;;6.30;5.27;;;25.00;52.70;;;;;;5072285;28;20837;-88
2022/08/01 04:08:35;;;;;;;5.47;4.97;;;25.00;53.20;;;;;;5072708;28;20993;-85
2022/08/01 04:11:02;;;;;;;6.37;4.60;;;25.00;53.50;;;;;;5056883;28;20460;-90
2022/08/01 04:13:29;;;;;;;5.23;4.77;;;25.00;53.10;;;;;;5074057;28;20444;-88
2022/08/01 04:15:56;;;;;;;5.20;4.80;;;25.00;52.80;;;;;;5075640;28;20471;-87
2022/08/01 04:18:23;;;;;;;8.57;5.60;;;24.90;53.20;;;;;;5073720;28;20843;-85
2022/08/01 04:20:50;;;;;;;5.37;4.87;;;24.90;53.30;;;;;;5076516;28;20444;-88
2022/08/01 04:23:21;;;;;;;5.90;4.37;;;24.90;53.40;;;;;;5056597;28;20456;-86
2022/08/01 04:25:51;;;;;;;4.70;4.10;;;24.90;53.50;;;;;;5022590;28;21246;-91
2022/08/01 04:28:19;;;;;;;4.60;4.20;;;24.90;53.60;;;;;;5056558;28;21089;-85
2022/08/01 04:30:48;;;;;;;5.13;4.83;;;24.90;53.60;;;;;;5054463;28;20464;-85
2022/08/01 04:33:17;;;;;;;5.20;4.70;;;24.90;53.80;;;;;;5074050;28;20506;-85
2022/08/01 04:35:46;;;;;;;7.07;4.70;;;24.90;54.50;;;;;;5052278;28;21004;-85
2022/08/01 04:38:20;;;;;;;7.13;5.20;;;24.90;53.70;;;;;;5056351;28;20456;-86
2022/08/01 04:40:50;;;;;;;4.80;4.40;;;25.00;53.80;;;;;;5043613;28;20471;-85
2022/08/01 04:43:18;;;;;;;6.53;5.10;;;25.00;53.80;;;;;;5076925;28;20505;-87
2022/08/01 04:45:47;;;;;;;4.60;4.30;;;25.10;53.80;;;;;;5043334;28;20471;-86
2022/08/01 04:48:17;;;;;;;6.10;5.20;;;25.10;54.00;;;;;;5081409;28;20448;-87
2022/08/01 04:50:44;;;;;;;5.87;4.70;;;25.20;54.00;;;;;;5063277;28;20974;-85
2022/08/01 04:53:14;;;;;;;5.40;4.90;;;25.20;54.20;;;;;;5098023;28;20447;-85
2022/08/01 04:55:42;;;;;;;5.20;4.60;;;25.20;54.30;;;;;;5094204;28;20463;-84
2022/08/01 04:58:12;;;;;;;5.90;5.40;;;25.20;54.30;;;;;;5097864;28;20471;-89
2022/08/01 05:00:41;;;;;;;5.47;4.97;;;25.20;54.50;;;;;;5097233;28;20439;-84
2022/08/01 05:03:08;;;;;;;8.73;5.63;;;25.20;54.50;;;;;;5100770;28;20447;-91
2022/08/01 05:05:35;;;;;;;5.83;5.33;;;25.30;54.40;;;;;;5081542;28;20982;-85
2022/08/01 05:08:03;;;;;;;6.50;5.30;;;25.30;54.40;;;;;;5078997;28;21026;-88
2022/08/01 05:10:30;;;;;;;5.93;5.03;;;25.30;54.30;;;;;;5079097;28;21000;-85
2022/08/01 05:12:58;;;;;;;5.67;5.17;;;25.30;54.40;;;;;;5101690;28;20447;-85
2022/08/01 05:15:26;;;;;;;5.77;5.27;;;25.30;54.40;;;;;;5098784;28;20467;-85
2022/08/01 05:17:53;;;;;;;6.80;5.13;;;25.40;54.30;;;;;;5097918;28;20539;-85
2022/08/01 05:20:21;;;;;;;4.93;4.50;;;25.40;54.00;;;;;;5101602;28;20447;-87
2022/08/01 05:22:47;;;;;;;8.27;5.00;;;25.50;53.90;;;;;;5079926;28;20450;-85
2022/08/01 05:25:15;;;;;;;5.97;5.40;;;25.40;54.30;;;;;;5099881;28;20469;-88
2022/08/01 05:27:42;;;;;;;6.33;5.73;;;25.30;54.30;;;;;;5081903;28;20456;-88
2022/08/01 05:30:11;;;;;;;5.47;5.07;;;25.30;54.50;;;;;;5098996;28;20466;-87
2022/08/01 05:32:38;;;;;;;6.07;5.50;;;25.40;54.40;;;;;;5082074;28;20451;-86
2022/08/01 05:35:07;;;;;;;7.90;5.13;;;25.40;55.10;;;;;;5084928;28;20590;-90
2022/08/01 05:37:34;;;;;;;7.60;5.23;;;25.30;55.00;;;;;;5092278;28;20501;-91
2022/08/01 05:40:01;;;;;;;6.17;5.57;;;25.30;55.30;;;;;;5093970;28;20463;-87
2022/08/01 05:42:28;;;;;;;5.93;5.40;;;25.20;55.50;;;;;;5103870;28;20476;-86
2022/08/01 05:44:55;;;;;;;5.57;5.07;;;25.30;55.40;;;;;;5081020;28;20511;-85
2022/08/01 05:47:23;;;;;;;6.73;5.93;;;25.30;55.30;;;;;;5069634;28;20461;-86
2022/08/01 05:49:50;;;;;;;5.50;5.10;;;25.30;55.20;;;;;;5070806;28;20799;-87
2022/08/01 05:52:17;;;;;;;5.97;5.33;;;25.20;55.10;;;;;;5098031;28;20478;-86
2022/08/01 05:54:44;;;;;;;4.80;4.40;;;24.80;56.00;;;;;;5062686;28;20990;-88
2022/08/01 05:57:11;;;;;;;5.70;4.70;;;24.80;56.30;;;;;;5077525;28;20451;-85
2022/08/01 05:59:38;;;;;;;7.23;4.70;;;24.70;56.40;;;;;;5078472;28;20976;-88
2022/08/01 06:02:05;;;;;;;4.47;3.90;;;24.70;55.80;;;;;;5082599;28;20455;-87
2022/08/01 06:04:33;;;;;;;5.00;4.53;;;24.90;55.60;;;;;;5048072;28;20462;-87
2022/08/01 06:07:00;;;;;;;4.60;4.20;;;25.20;55.30;;;;;;5100288;28;20447;-86
2022/08/01 06:09:27;;;;;;;5.00;3.73;;;25.40;55.00;;;;;;5079207;28;20455;-87
2022/08/01 06:11:54;;;;;;;4.50;4.07;;;25.70;53.90;;;;;;5077892;28;20528;-88
2022/08/01 06:14:21;;;;;;;9.53;4.10;;;25.80;53.50;;;;;;5065388;28;20443;-85
2022/08/01 06:16:48;;;;;;;4.40;3.90;;;25.80;53.80;;;;;;5097525;28;20457;-87
2022/08/01 06:19:15;;;;;;;4.00;3.70;;;26.00;53.10;;;;;;5096682;28;20454;-86
2022/08/01 06:21:43;;;;;;;4.03;3.73;;;26.20;52.80;;;;;;5078469;28;20834;-91
2022/08/01 06:24:10;;;;;;;3.63;3.33;;;26.20;52.50;;;;;;5081672;28;20447;-87
2022/08/01 06:26:37;;;;;;;4.17;3.77;;;26.20;52.80;;;;;;5066726;28;20448;-86
2022/08/01 06:29:04;;;;;;;4.03;3.40;;;26.20;52.50;;;;;;5080729;28;20447;-86
2022/08/01 06:31:32;;;;;;;3.80;3.40;;;26.20;52.50;;;;;;5073244;28;20467;-86
2022/08/01 06:33:58;;;;;;;3.23;2.93;;;26.30;52.20;;;;;;5101653;28;20444;-87
2022/08/01 06:36:26;;;;;;;3.00;2.80;;;26.30;52.10;;;;;;5079098;28;20478;-86
2022/08/01 06:38:54;;;;;;;4.50;2.43;;;26.30;51.90;;;;;;5075354;28;20526;-87
2022/08/01 06:41:21;;;;;;;2.60;2.40;;;26.40;51.90;;;;;;5080518;28;20438;-87
2022/08/01 06:43:48;;;;;;;2.63;2.20;;;26.50;51.70;;;;;;5096349;28;20444;-86
2022/08/01 06:46:15;;;;;;;3.00;2.60;;;26.40;51.50;;;;;;5063708;28;20459;-86
2022/08/01 06:48:42;;;;;;;3.10;2.60;;;26.50;51.30;;;;;;5094356;28;20451;-86
2022/08/01 06:51:09;;;;;;;3.10;2.83;;;26.70;51.70;;;;;;5080170;28;20468;-86
2022/08/01 06:53:37;;;;;;;2.53;2.33;;;26.70;51.10;;;;;;5080958;28;20935;-88
2022/08/01 06:56:08;;;;;;;3.30;2.90;;;27.00;50.80;;;;;;5096294;28;20533;-86
2022/08/01 06:58:35;;;;;;;2.90;2.63;;;27.10;50.50;;;;;;5082559;28;20703;-87
2022/08/01 07:01:05;;;;;;;3.27;2.63;;;27.20;50.40;;;;;;5065577;28;20458;-87
2022/08/01 07:03:32;;;;;;;3.20;2.90;;;27.30;49.70;;;;;;5078353;28;20500;-88
2022/08/01 07:05:59;;;;;;;3.50;3.20;;;27.20;49.60;;;;;;5066624;28;21001;-88
2022/08/01 07:08:26;;;;;;;3.83;3.30;;;27.00;49.80;;;;;;5082462;28;21134;-87
2022/08/01 07:10:53;;;;;;;3.70;2.63;;;26.60;50.40;;;;;;5093862;28;20849;-86
2022/08/01 07:13:24;;;;;;;2.83;2.60;;;26.40;50.60;;;;;;5081307;28;20450;-88
2022/08/01 07:15:52;;;;;;;5.40;3.23;;;26.20;51.00;;;;;;5050267;28;20463;-87
2022/08/01 07:18:19;;;;;;;4.63;2.80;;;26.30;51.50;;;;;;5066659;28;20459;-87
2022/08/01 07:20:47;;;;;;;3.17;2.80;;;26.60;51.10;;;;;;5071941;28;20464;-87
2022/08/01 07:23:14;;;;;;;3.00;2.70;;;26.90;50.50;;;;;;5096199;28;20447;-86
2022/08/01 07:25:41;;;;;;;2.23;2.03;;;27.00;50.10;;;;;;5096957;28;20811;-86
2022/08/01 07:28:08;;;;;;;2.87;2.43;;;27.00;49.90;;;;;;5094638;28;21023;-91
2022/08/01 07:30:37;;;;;;;2.60;2.40;;;27.00;50.40;;;;;;5091542;28;20474;-90
2022/08/01 07:33:04;;;;;;;2.67;2.43;;;27.10;50.00;;;;;;5058516;28;20478;-85
2022/08/01 07:35:31;;;;;;;3.20;2.90;;;27.10;49.90;;;;;;5073536;28;21056;-89
2022/08/01 07:37:58;;;;;;;3.10;2.90;;;27.30;49.60;;;;;;5093796;28;20458;-87
2022/08/01 07:40:25;;;;;;;4.97;2.87;;;27.30;49.80;;;;;;5074643;28;21321;-87
2022/08/01 07:42:52;;;;;;;2.20;2.00;;;27.40;48.80;;;;;;5093864;28;20810;-87
2022/08/01 07:45:20;;;;;;;2.87;2.67;;;27.80;48.70;;;;;;5092070;28;20467;-87
2022/08/01 07:47:49;;;;;;;4.33;2.40;;;27.80;48.20;;;;;;5093502;28;20455;-87
2022/08/01 07:50:16;;;;;;;3.13;2.77;;;28.00;48.30;;;;;;5091468;28;20514;-89
2022/08/01 07:52:44;;;;;;;2.87;2.53;;;27.90;47.30;;;;;;5076285;28;20553;-87
2022/08/01 07:55:12;;;;;;;2.70;2.50;;;27.80;47.90;;;;;;5090233;28;21089;-87
2022/08/01 07:57:39;;;;;;;2.30;2.10;;;27.70;48.00;;;;;;5082727;28;20455;-86
2022/08/01 08:00:08;;;;;;;2.60;2.40;;;27.70;47.80;;;;;;5072758;28;20882;-86
2022/08/01 08:02:35;;;;;;;2.30;2.10;;;27.50;48.10;;;;;;5075957;28;20435;-86
2022/08/01 08:05:06;;;;;;;3.03;2.83;;;27.40;48.00;;;;;;5083066;28;20697;-89
2022/08/01 08:07:33;;;;;;;2.33;2.13;;;27.40;48.70;;;;;;5094830;28;20453;-89
2022/08/01 08:10:00;;;;;;;5.57;2.20;;;27.30;48.20;;;;;;5092453;28;20451;-88
2022/08/01 08:12:27;;;;;;;2.90;2.70;;;27.30;48.10;;;;;;5049225;28;20811;-90
2022/08/01 08:14:54;;;;;;;2.40;2.20;;;27.40;48.20;;;;;;5052697;28;20557;-86
2022/08/01 08:17:21;;;;;;;2.37;2.17;;;27.40;48.10;;;;;;5051937;28;20443;-86
2022/08/01 08:19:48;;;;;;;2.17;1.97;;;27.60;47.90;;;;;;5069270;28;20837;-89
2022/08/01 08:22:17;;;;;;;2.47;2.27;;;27.70;47.90;;;;;;5080180;28;20922;-87
2022/08/01 08:24:44;;;;;;;1.97;1.87;;;27.70;47.30;;;;;;5095104;28;20476;-90
2022/08/01 08:27:11;;;;;;;2.70;2.50;;;27.70;47.80;;;;;;5080470;28;21017;-86
2022/08/01 08:29:38;;;;;;;2.40;2.20;;;27.70;47.60;;;;;;5084272;28;20456;-86
2022/08/01 08:32:06;;;;;;;2.60;2.07;;;27.80;47.60;;;;;;5069263;28;20470;-88
2022/08/01 08:34:34;;;;;;;2.20;2.00;;;27.90;47.90;;;;;;5067604;28;20466;-87
2022/08/01 08:37:00;;;;;;;2.10;1.90;;;27.70;47.30;;;;;;5085144;28;20968;-87
2022/08/01 08:39:29;;;;;;;4.03;1.83;;;27.90;47.50;;;;;;5045739;28;20459;-88
2022/08/01 08:41:57;;;;;;;1.90;1.80;;;28.30;47.10;;;;;;5097003;28;20450;-86
2022/08/01 08:44:24;;;;;;;2.63;1.47;;;28.50;46.30;;;;;;5079542;28;20562;-87
2022/08/01 08:46:53;;;;;;;2.60;2.13;;;28.50;45.80;;;;;;5098324;28;20891;-86
2022/08/01 08:49:21;;;;;;;2.70;2.10;;;28.40;45.50;;;;;;5096549;28;20443;-88
2022/08/01 08:51:50;;;;;;;1.90;1.80;;;28.20;46.00;;;;;;5097570;28;20492;-86
2022/08/01 08:54:20;;;;;;;1.90;1.80;;;28.30;46.40;;;;;;5094885;28;20533;-88
2022/08/01 09:01:20;;;;;;;2.30;2.10;;;28.90;44.90;;;;;;5094010;28;20429;-86
2022/08/01 09:03:47;;;;;;;3.20;2.03;;;28.90;43.80;;;;;;5049555;28;20463;-86
2022/08/01 09:06:14;;;;;;;2.20;2.00;;;29.00;44.50;;;;;;5097220;28;20845;-88
2022/08/01 09:08:41;;;;;;;1.70;1.60;;;29.10;44.80;;;;;;5063590;28;20561;-87
2022/08/01 09:11:09;;;;;;;1.97;1.87;;;29.20;44.20;;;;;;5078722;28;20452;-87
2022/08/01 09:13:35;;;;;;;1.77;1.67;;;29.10;44.20;;;;;;5067861;28;20800;-91
2022/08/01 09:16:03;;;;;;;2.27;2.07;;;29.10;43.60;;;;;;5080658;28;20463;-87
2022/08/01 09:18:33;;;;;;;2.20;2.10;;;29.10;44.70;;;;;;5082242;28;20446;-87
2022/08/01 09:21:12;;;;;;;3.10;2.20;;;28.80;45.00;;;;;;5078411;28;20467;-88
2022/08/01 09:23:42;;;;;;;2.83;2.40;;;28.60;45.60;;;;;;5082356;28;20870;-89
2022/08/01 09:26:34;;;;;;;2.57;1.90;;;28.60;45.40;;;;;;5046683;28;20481;-91
2022/08/01 09:29:04;;;;;;;1.77;1.67;;;28.30;45.20;;;;;;5100230;28;20456;-87
2022/08/01 09:31:40;;;;;;;2.50;2.30;;;28.60;45.00;;;;;;5099482;28;20443;-88
2022/08/01 09:34:34;;;;;;;1.93;1.80;;;28.80;44.60;;;;;;5068505;28;20464;-93
2022/08/01 09:37:05;;;;;;;1.90;1.80;;;29.30;43.80;;;;;;5094794;28;20461;-88
2022/08/01 09:39:36;;;;;;;5.13;2.00;;;29.80;42.70;;;;;;5099989;28;20440;-86
2022/08/01 09:42:20;;;;;;;1.90;1.80;;;30.00;42.30;;;;;;5078356;28;21012;-88
2022/08/01 09:44:48;;;;;;;2.10;1.90;;;29.90;42.30;;;;;;5099652;28;20467;-87
2022/08/01 09:47:16;;;;;;;1.90;1.80;;;29.90;42.90;;;;;;5074867;28;20459;-86
2022/08/01 09:49:45;;;;;;;2.10;2.00;;;29.50;43.60;;;;;;5098113;28;20477;-87
2022/08/01 09:52:14;;;;;;;3.23;2.27;;;29.50;43.40;;;;;;5064286;28;20463;-89
2022/08/01 09:54:43;;;;;;;2.70;1.97;;;29.50;43.40;;;;;;5080046;28;20538;-88
2022/08/01 09:57:15;;;;;;;3.07;1.70;;;29.80;43.30;;;;;;5065779;28;20452;-89
2022/08/01 09:59:44;;;;;;;2.00;1.90;;;30.30;41.00;;;;;;5076888;28;20467;-88
2022/08/01 10:02:37;;;;;;;1.93;1.83;;;30.50;39.70;;;;;;5079018;28;20452;-92
2022/08/01 10:05:07;;;;;;;2.03;1.93;;;30.20;40.80;;;;;;5094782;28;20481;-88
2022/08/01 10:07:34;;;;;;;1.70;1.60;;;29.90;41.00;;;;;;5097789;28;20431;-93
2022/08/01 10:10:14;;;;;;;1.80;1.70;;;29.80;42.20;;;;;;5078748;28;20455;-88
2022/08/01 10:12:43;;;;;;;1.87;1.77;;;29.60;40.00;;;;;;5091966;28;20519;-86
2022/08/01 10:15:11;;;;;;;2.10;1.53;;;29.30;41.00;;;;;;5094379;28;21042;-89
2022/08/01 10:17:40;;;;;;;1.77;1.67;;;29.20;41.50;;;;;;5076192;28;20446;-88
2022/08/01 10:20:13;;;;;;;2.23;2.03;;;29.00;42.30;;;;;;5083039;28;20455;-91
2022/08/01 10:22:43;;;;;;;1.70;1.60;;;29.20;42.10;;;;;;5086759;28;20438;-86
2022/08/01 10:25:11;;;;;;;1.93;1.83;;;29.50;41.50;;;;;;5077015;28;20466;-88
2022/08/01 10:27:40;;;;;;;1.80;1.70;;;29.60;41.00;;;;;;5094600;28;20496;-90
2022/08/01 10:32:59;;;;;;;1.80;1.70;;;30.30;40.90;;;;;;5094860;28;20498;-86
2022/08/01 10:35:29;;;;;;;1.40;1.30;;;30.50;40.10;;;;;;5074290;28;20804;-89
2022/08/01 10:37:57;;;;;;;1.90;1.80;;;30.40;39.60;;;;;;5094969;28;20466;-88
2022/08/01 10:40:25;;;;;;;2.17;2.07;;;30.50;39.30;;;;;;5073819;28;21184;-88
2022/08/01 10:42:52;;;;;;;1.67;1.57;;;30.40;41.00;;;;;;5063988;28;21320;-91
2022/08/01 10:45:20;;;;;;;2.00;1.53;;;30.70;38.70;;;;;;5091303;28;20848;-88
2022/08/01 10:48:05;;;;;;;1.80;1.60;;;31.00;37.80;;;;;;5095405;28;20500;-89
2022/08/01 10:51:02;;;;;;;1.97;1.77;;;31.00;38.30;;;;;;5063978;28;20965;-88
2022/08/01 10:53:29;;;;;;;1.60;1.50;;;31.20;39.00;;;;;;5064296;28;20475;-88
2022/08/01 10:56:00;;;;;;;1.80;1.70;;;31.00;39.30;;;;;;5041186;28;21786;-92
2022/08/01 10:58:43;;;;;;;1.47;1.37;;;31.10;37.80;;;;;;5097248;28;20452;-86
2022/08/01 11:01:22;;;;;;;1.73;1.63;;;30.80;38.60;;;;;;5047432;28;20444;-88
2022/08/01 11:07:08;;;;;;;1.67;1.57;;;30.90;38.10;;;;;;5038452;28;20494;-87
2022/08/01 11:09:44;;;;;;;2.00;1.90;;;30.90;38.60;;;;;;5057457;28;20454;-90
2022/08/01 11:12:40;;;;;;;1.47;1.37;;;31.10;38.80;;;;;;5075035;28;20591;-89
2022/08/01 11:15:30;;;;;;;2.07;1.87;;;30.90;37.40;;;;;;5093310;28;20995;-88
2022/08/01 11:17:58;;;;;;;1.70;1.60;;;30.30;38.70;;;;;;5076041;28;20973;-91
2022/08/01 11:20:29;;;;;;;1.40;1.30;;;30.20;39.70;;;;;;5055039;28;20458;-89
2022/08/01 11:23:28;;;;;;;2.47;1.60;;;30.10;40.40;;;;;;5060990;28;20800;-89
2022/08/01 11:26:13;;;;;;;1.70;1.60;;;30.10;39.30;;;;;;5093826;28;20965;-90
2022/08/01 11:28:43;;;;;;;2.10;1.90;;;30.00;39.90;;;;;;5058027;28;20916;-87
2022/08/01 11:31:30;;;;;;;2.20;2.00;;;30.20;39.90;;;;;;5058381;28;20443;-88
2022/08/01 11:33:58;;;;;;;1.83;1.73;;;30.30;40.20;;;;;;5058092;28;20462;-87
2022/08/01 11:36:25;;;;;;;1.90;1.80;;;30.10;39.50;;;;;;5071477;28;20463;-89
2022/08/01 11:39:14;;;;;;;1.80;1.70;;;29.80;40.70;;;;;;5094101;28;20448;-89
2022/08/01 11:41:42;;;;;;;1.80;1.70;;;30.10;39.90;;;;;;5091391;28;20442;-88
2022/08/01 11:44:10;;;;;;;1.83;1.73;;;30.40;39.70;;;;;;5073494;28;20435;-89
2022/08/01 11:47:03;;;;;;;1.77;1.67;;;31.00;38.60;;;;;;5078473;28;20471;-88
2022/08/01 11:49:45;;;;;;;1.90;1.80;;;31.50;37.00;;;;;;5059209;28;20438;-89
2022/08/01 11:52:14;;;;;;;1.90;1.80;;;31.80;37.20;;;;;;5101365;28;20439;-89
2022/08/01 11:54:45;;;;;;;1.63;1.53;;;32.20;35.80;;;;;;5064770;28;20561;-89
2022/08/01 11:57:15;;;;;;;2.20;2.10;;;32.20;36.00;;;;;;5062741;28;21116;-89
2022/08/01 11:59:48;;;;;;;1.80;1.70;;;31.90;36.80;;;;;;5048540;28;21214;-89
2022/08/01 12:02:20;;;;;;;1.77;1.67;;;31.50;36.20;;;;;;5096991;28;20457;-90
2022/08/01 12:04:48;;;;;;;9.00;1.93;;;31.50;35.50;;;;;;5078106;28;20467;-89
2022/08/01 12:07:17;;;;;;;1.87;1.77;;;31.80;35.80;;;;;;5098400;28;20455;-87
2022/08/01 12:09:46;;;;;;;2.20;2.00;;;32.10;35.70;;;;;;5094779;28;20474;-88
2022/08/01 12:12:18;;;;;;;1.90;1.80;;;32.00;36.10;;;;;;5094829;28;20451;-89
2022/08/01 12:14:46;;;;;;;1.90;1.80;;;31.80;35.60;;;;;;5054187;28;20499;-88
2022/08/01 12:17:14;;;;;;;1.90;1.80;;;31.70;36.90;;;;;;5078687;28;20458;-90
2022/08/01 12:19:41;;;;;;;1.90;1.80;;;31.50;37.00;;;;;;5073295;28;20545;-89
2022/08/01 12:22:14;;;;;;;2.03;1.70;;;31.60;36.60;;;;;;5063642;28;20450;-92
2022/08/01 12:24:44;;;;;;;1.90;1.80;;;31.70;36.10;;;;;;5080953;28;20524;-90
2022/08/01 12:27:12;;;;;;;2.17;1.97;;;32.00;35.90;;;;;;5080855;28;21234;-88
2022/08/01 12:29:43;;;;;;;1.73;1.63;;;32.20;35.30;;;;;;5101714;28;20451;-89
2022/08/01 12:32:25;;;;;;;1.90;1.80;;;32.50;35.60;;;;;;5083887;28;20447;-94
2022/08/01 12:34:53;;;;;;;2.00;1.90;;;33.00;35.00;;;;;;5098981;28;21356;-89
2022/08/01 12:37:20;;;;;;;2.37;2.00;;;33.20;34.00;;;;;;5064195;28;20435;-91
2022/08/01 12:39:49;;;;;;;2.10;1.90;;;33.40;34.00;;;;;;5067986;28;20998;-88
2022/08/01 12:42:16;;;;;;;1.93;1.80;;;33.60;33.80;;;;;;5078375;28;20428;-88
2022/08/01 12:44:46;;;;;;;1.90;1.67;;;33.50;33.50;;;;;;5074670;28;20459;-88
2022/08/01 12:47:14;;;;;;;1.90;1.70;;;33.60;33.10;;;;;;5103301;28;20475;-88
2022/08/01 12:49:43;;;;;;;1.90;1.70;;;33.50;32.60;;;;;;5083140;28;20462;-88
2022/08/01 12:52:17;;;;;;;2.80;1.83;;;33.10;33.00;;;;;;5095747;28;20489;-90
2022/08/01 12:55:08;;;;;;;1.80;1.70;;;32.70;33.90;;;;;;5077575;28;20466;-91
2022/08/01 12:57:36;;;;;;;2.40;2.20;;;32.70;34.90;;;;;;5083345;28;20439;-90
2022/08/01 13:00:13;;;;;;;2.63;2.23;;;32.40;34.40;;;;;;5079115;28;20453;-89
2022/08/01 13:02:42;;;;;;;3.67;2.40;;;32.30;34.60;;;;;;5061184;28;20454;-89
2022/08/01 13:05:11;;;;;;;3.37;2.50;;;32.10;35.00;;;;;;5094290;28;20481;-89
2022/08/01 13:07:44;;;;;;;6.33;2.83;;;31.80;35.90;;;;;;5095634;28;20443;-88
2022/08/01 13:10:13;;;;;;;3.00;2.60;;;31.70;36.30;;;;;;5068198;28;20452;-88